Time;durP1;ratioP1;P1;durP2;ratioP2;P2;SDS_P1;SDS_P2;PMS_P1;PMS_P2;Temp;Humidity;BMP_temperature;BMP_pressure;BME280_temperature;BME280_humidity;BME280_pressure;Samples;Min_cycle;Max_cycle;Signal;HPM_P1;HPM_P2
2023/02/10 00:00:45;;;;;;;25.73;16.23;;;5.10;99.90;;;;;;5011782;28;20188;-70
2023/02/10 00:03:11;;;;;;;33.17;17.73;;;4.90;99.90;;;;;;5011837;28;20407;-71
2023/02/10 00:05:36;;;;;;;32.47;16.97;;;4.80;99.90;;;;;;5011478;28;20173;-71
2023/02/10 00:08:02;;;;;;;27.20;16.60;;;4.90;99.90;;;;;;5011651;28;20172;-72
2023/02/10 00:10:27;;;;;;;30.23;17.83;;;4.90;99.90;;;;;;5011541;28;20270;-70
2023/02/10 00:12:53;;;;;;;22.70;14.63;;;4.90;99.90;;;;;;5010230;28;20634;-71
2023/02/10 00:15:18;;;;;;;28.93;16.63;;;5.00;99.90;;;;;;5011754;28;20171;-71
2023/02/10 00:17:44;;;;;;;23.87;17.20;;;5.00;99.90;;;;;;5015151;28;20168;-71
2023/02/10 00:20:10;;;;;;;29.40;15.80;;;5.00;99.90;;;;;;5005104;28;20200;-71
2023/02/10 00:22:36;;;;;;;32.83;16.07;;;5.00;99.90;;;;;;4995633;28;20538;-70
2023/02/10 00:25:02;;;;;;;31.50;17.03;;;5.10;99.90;;;;;;4993852;28;20415;-71
2023/02/10 00:27:27;;;;;;;31.53;16.03;;;5.00;99.90;;;;;;4994218;28;20181;-70
2023/02/10 00:29:53;;;;;;;31.40;16.97;;;5.00;99.90;;;;;;4995202;28;20213;-71
2023/02/10 00:32:18;;;;;;;29.27;15.70;;;5.10;99.90;;;;;;4995433;28;20169;-71
2023/02/10 00:34:45;;;;;;;31.90;15.33;;;5.20;99.90;;;;;;5006135;28;20172;-71
2023/02/10 00:37:11;;;;;;;28.57;16.33;;;5.20;99.90;;;;;;5022784;28;20200;-71
2023/02/10 00:39:36;;;;;;;28.90;16.80;;;5.00;99.90;;;;;;5013379;28;20411;-71
2023/02/10 00:42:02;;;;;;;30.60;16.00;;;4.90;99.90;;;;;;5013582;28;20411;-71
2023/02/10 00:44:28;;;;;;;29.50;15.43;;;4.90;99.90;;;;;;5013106;28;20165;-71
2023/02/10 00:46:53;;;;;;;26.20;16.70;;;5.00;99.90;;;;;;4995383;28;20219;-71
2023/02/10 00:49:19;;;;;;;27.53;15.07;;;5.10;99.90;;;;;;4995149;28;20199;-71
2023/02/10 00:51:44;;;;;;;31.30;16.63;;;4.90;99.90;;;;;;5009851;28;20768;-71
2023/02/10 00:54:13;;;;;;;27.73;13.83;;;4.90;99.90;;;;;;4994831;28;20658;-73
2023/02/10 00:56:40;;;;;;;31.30;14.70;;;4.90;99.90;;;;;;4994703;28;20181;-70
2023/02/10 00:59:05;;;;;;;27.90;16.47;;;4.80;99.90;;;;;;4994950;28;20499;-70
2023/02/10 01:01:31;;;;;;;29.73;15.40;;;4.80;99.90;;;;;;4993421;28;21021;-70
2023/02/10 01:03:57;;;;;;;34.60;16.20;;;4.70;99.90;;;;;;4994833;28;20173;-70
2023/02/10 01:06:22;;;;;;;26.83;16.67;;;4.60;99.90;;;;;;4994435;28;20204;-70
2023/02/10 01:08:48;;;;;;;37.00;16.37;;;4.60;99.90;;;;;;4993288;28;20326;-70
2023/02/10 01:11:13;;;;;;;28.07;15.97;;;4.70;99.90;;;;;;4994541;28;20680;-70
2023/02/10 01:13:41;;;;;;;29.73;15.30;;;4.60;99.90;;;;;;4994401;28;20172;-70
2023/02/10 01:16:11;;;;;;;33.60;17.20;;;4.60;99.90;;;;;;4994393;28;20623;-70
2023/02/10 01:18:38;;;;;;;31.07;17.53;;;4.60;99.90;;;;;;4994197;28;20539;-71
2023/02/10 01:21:14;;;;;;;30.43;18.10;;;4.50;99.90;;;;;;4994418;28;20439;-70
2023/02/10 01:23:40;;;;;;;31.83;16.40;;;4.60;99.90;;;;;;4994435;28;20776;-71
2023/02/10 01:26:07;;;;;;;35.17;16.10;;;4.50;99.90;;;;;;4993902;28;20411;-70
2023/02/10 01:28:33;;;;;;;29.20;15.40;;;4.60;99.90;;;;;;4994291;28;20539;-71
2023/02/10 01:31:03;;;;;;;25.33;15.40;;;4.60;99.90;;;;;;4994210;28;20463;-71
2023/02/10 01:33:29;;;;;;;33.30;16.23;;;4.60;99.90;;;;;;4994144;28;20945;-70
2023/02/10 01:35:54;;;;;;;27.73;15.20;;;4.70;99.90;;;;;;4993895;28;20507;-72
2023/02/10 01:38:20;;;;;;;30.13;16.50;;;4.60;99.90;;;;;;4994150;28;20176;-70
2023/02/10 01:40:49;;;;;;;40.77;17.60;;;4.80;99.90;;;;;;4993886;28;20211;-70
2023/02/10 01:43:16;;;;;;;25.00;15.03;;;4.90;99.90;;;;;;4994148;28;20676;-70
2023/02/10 01:45:41;;;;;;;29.70;16.40;;;4.80;99.90;;;;;;5000903;28;20505;-70
2023/02/10 01:48:09;;;;;;;36.30;16.27;;;4.90;99.90;;;;;;5022123;28;20500;-71
2023/02/10 01:50:42;;;;;;;28.53;15.10;;;4.80;99.90;;;;;;5032894;28;20497;-70
2023/02/10 01:53:07;;;;;;;29.93;15.90;;;4.80;99.90;;;;;;5033241;28;20398;-70
2023/02/10 01:55:34;;;;;;;27.63;17.13;;;4.90;99.90;;;;;;5032813;28;20961;-70
2023/02/10 01:58:04;;;;;;;35.10;17.17;;;5.00;99.90;;;;;;5033252;28;20172;-70
2023/02/10 02:00:30;;;;;;;30.30;16.67;;;5.10;99.90;;;;;;5032950;28;20522;-71
2023/02/10 02:02:56;;;;;;;27.97;15.03;;;5.20;99.90;;;;;;5032921;28;20505;-71
2023/02/10 02:05:42;;;;;;;27.80;16.37;;;5.20;99.90;;;;;;5031418;28;20176;-71
2023/02/10 02:08:40;;;;;;;25.83;16.07;;;5.30;99.90;;;;;;5032868;28;20182;-70
2023/02/10 02:11:43;;;;;;;28.07;15.60;;;5.20;99.90;;;;;;5031221;28;20564;-71
2023/02/10 02:14:26;;;;;;;30.57;15.07;;;5.30;99.90;;;;;;5032809;28;20872;-70
2023/02/10 02:17:14;;;;;;;23.63;15.03;;;5.40;99.90;;;;;;5024134;28;20419;-71
2023/02/10 02:20:40;;;;;;;32.73;14.40;;;5.40;99.90;;;;;;5012891;28;20411;-70
2023/02/10 02:23:12;;;;;;;30.67;14.40;;;5.40;99.90;;;;;;5012558;28;20881;-70
2023/02/10 02:26:09;;;;;;;41.47;16.03;;;5.30;99.90;;;;;;5012685;28;20426;-71
2023/02/10 02:28:37;;;;;;;26.77;14.20;;;5.30;99.90;;;;;;5012735;28;20411;-71
2023/02/10 02:31:27;;;;;;;34.40;15.90;;;5.30;99.90;;;;;;5012496;28;20463;-71
2023/02/10 02:34:00;;;;;;;33.53;15.60;;;5.40;99.90;;;;;;5011424;28;20411;-71
2023/02/10 02:36:31;;;;;;;30.70;15.70;;;5.30;99.90;;;;;;5012703;28;20967;-71
2023/02/10 02:39:02;;;;;;;24.67;14.90;;;5.40;99.90;;;;;;5012088;28;20758;-71
2023/02/10 02:41:29;;;;;;;27.57;16.60;;;5.40;99.90;;;;;;5012468;28;20477;-72
2023/02/10 02:43:56;;;;;;;34.43;19.80;;;5.40;99.90;;;;;;5012549;28;20509;-72
2023/02/10 02:46:46;;;;;;;26.80;16.67;;;5.40;99.90;;;;;;4997075;28;20887;-72
2023/02/10 02:49:21;;;;;;;23.40;13.67;;;5.40;99.90;;;;;;4992787;28;20419;-72
2023/02/10 02:51:54;;;;;;;31.10;16.37;;;5.40;99.90;;;;;;4992741;28;20546;-71
2023/02/10 02:54:50;;;;;;;29.17;16.50;;;5.50;99.90;;;;;;4992506;28;20823;-71
2023/02/10 02:57:31;;;;;;;28.90;15.40;;;5.40;99.90;;;;;;4998516;28;20430;-70
2023/02/10 02:59:56;;;;;;;25.07;13.30;;;5.40;99.90;;;;;;5012271;28;20680;-70
2023/02/10 03:02:22;;;;;;;39.93;15.70;;;5.40;99.90;;;;;;5032119;28;20501;-71
2023/02/10 03:04:48;;;;;;;28.23;14.17;;;5.40;99.90;;;;;;5031801;28;20577;-71
2023/02/10 03:07:14;;;;;;;23.70;15.43;;;5.30;99.90;;;;;;5031909;28;20221;-72
2023/02/10 03:09:40;;;;;;;34.27;17.17;;;5.30;99.90;;;;;;5031620;28;20418;-72
2023/02/10 03:12:07;;;;;;;26.97;16.00;;;5.20;99.90;;;;;;5031893;28;20414;-72
2023/02/10 03:14:32;;;;;;;25.60;16.00;;;5.20;99.90;;;;;;5031598;28;20412;-71
2023/02/10 03:16:58;;;;;;;28.73;17.23;;;5.10;99.90;;;;;;5013612;28;20423;-71
2023/02/10 03:19:24;;;;;;;34.87;17.97;;;5.00;99.90;;;;;;4992546;28;20531;-72
2023/02/10 03:21:49;;;;;;;33.30;17.50;;;5.00;99.90;;;;;;4992426;28;20212;-70
2023/02/10 03:24:16;;;;;;;29.30;15.93;;;5.00;99.90;;;;;;4992196;28;20400;-73
2023/02/10 03:26:42;;;;;;;26.63;16.73;;;4.90;99.90;;;;;;4992381;28;20165;-71
2023/02/10 03:29:09;;;;;;;32.27;16.67;;;4.90;99.90;;;;;;4992387;28;20416;-71
2023/02/10 03:31:35;;;;;;;26.00;15.20;;;4.90;99.90;;;;;;4992178;28;20583;-72
2023/02/10 03:34:00;;;;;;;35.37;16.50;;;5.00;99.90;;;;;;4992307;28;20415;-71
2023/02/10 03:36:26;;;;;;;29.73;16.80;;;4.90;99.90;;;;;;4992147;28;20567;-72
2023/02/10 03:38:52;;;;;;;31.00;15.37;;;4.90;99.90;;;;;;4992321;28;20534;-71
2023/02/10 03:41:17;;;;;;;34.97;15.87;;;4.90;99.90;;;;;;4992311;28;20193;-71
2023/02/10 03:43:43;;;;;;;33.13;15.97;;;4.70;99.90;;;;;;4990935;28;20279;-72
2023/02/10 03:46:09;;;;;;;28.13;15.40;;;4.70;99.90;;;;;;4999692;28;20177;-72
2023/02/10 03:48:36;;;;;;;34.47;19.43;;;4.70;99.90;;;;;;5011802;28;20226;-72
2023/02/10 03:51:03;;;;;;;33.30;19.10;;;4.60;99.90;;;;;;5014972;28;20446;-71
2023/02/10 03:53:30;;;;;;;31.10;17.40;;;4.40;99.90;;;;;;5015582;28;20407;-71
2023/02/10 03:55:56;;;;;;;35.93;16.40;;;4.40;99.90;;;;;;5015304;28;20414;-71
2023/02/10 03:58:21;;;;;;;37.00;15.80;;;4.30;99.90;;;;;;5015669;28;20497;-71
2023/02/10 04:00:48;;;;;;;30.70;13.93;;;4.30;99.90;;;;;;5015459;28;20208;-72
2023/02/10 04:03:13;;;;;;;30.07;15.87;;;4.20;99.90;;;;;;5015483;28;20177;-71
2023/02/10 04:05:39;;;;;;;26.53;14.33;;;4.20;99.90;;;;;;5016342;28;20907;-71
2023/02/10 04:08:05;;;;;;;25.47;13.57;;;4.10;99.90;;;;;;5026422;28;20176;-71
2023/02/10 04:10:31;;;;;;;30.00;13.97;;;4.00;99.90;;;;;;5015129;28;20204;-71
2023/02/10 04:12:56;;;;;;;28.07;15.00;;;3.90;99.90;;;;;;5015358;28;20494;-72
2023/02/10 04:15:22;;;;;;;25.30;14.90;;;3.90;99.90;;;;;;5009063;28;20204;-72
2023/02/10 04:17:48;;;;;;;27.30;15.10;;;3.70;99.90;;;;;;4994113;28;20203;-71
2023/02/10 04:20:14;;;;;;;28.13;14.07;;;3.60;99.90;;;;;;4995542;28;20807;-71
2023/02/10 04:22:40;;;;;;;26.10;15.67;;;3.50;99.90;;;;;;4995474;28;20180;-71
2023/02/10 04:25:06;;;;;;;25.70;13.97;;;3.40;99.90;;;;;;4995336;28;20414;-71
2023/02/10 04:27:32;;;;;;;27.03;12.43;;;3.30;99.90;;;;;;4994054;28;20736;-72
2023/02/10 04:29:57;;;;;;;27.13;14.20;;;3.20;99.90;;;;;;4994292;28;20454;-71
2023/02/10 04:32:23;;;;;;;31.47;13.80;;;3.10;99.90;;;;;;4994102;28;20165;-72
2023/02/10 04:34:49;;;;;;;24.37;12.97;;;3.00;99.90;;;;;;4995196;28;20175;-72
2023/02/10 04:37:14;;;;;;;18.23;12.13;;;2.90;99.90;;;;;;5026770;28;20172;-72
2023/02/10 04:39:40;;;;;;;25.43;13.50;;;2.80;99.90;;;;;;4995372;28;20168;-73
2023/02/10 04:42:06;;;;;;;26.83;13.30;;;2.80;99.90;;;;;;4995308;28;20186;-72
2023/02/10 04:44:31;;;;;;;25.83;13.93;;;2.70;99.90;;;;;;4994777;28;20169;-71
2023/02/10 04:46:57;;;;;;;22.37;13.00;;;2.60;99.90;;;;;;4996341;28;20169;-71
2023/02/10 04:49:24;;;;;;;21.63;11.83;;;2.50;99.90;;;;;;4995128;28;20204;-71
2023/02/10 04:51:49;;;;;;;26.20;14.13;;;2.50;99.90;;;;;;4993632;28;20239;-71
2023/02/10 04:54:15;;;;;;;27.87;14.00;;;2.40;99.90;;;;;;4994785;28;20441;-71
2023/02/10 04:56:40;;;;;;;25.30;13.97;;;2.40;99.90;;;;;;4994963;28;20169;-71
2023/02/10 04:59:06;;;;;;;35.37;15.83;;;2.30;99.90;;;;;;4994916;28;20171;-71
2023/02/10 05:01:31;;;;;;;23.63;14.13;;;2.30;99.90;;;;;;4994257;28;20658;-71
2023/02/10 05:03:57;;;;;;;27.03;13.87;;;2.20;99.90;;;;;;4994838;28;20200;-71
2023/02/10 05:06:22;;;;;;;26.00;14.03;;;2.20;99.90;;;;;;4994477;28;20177;-71
2023/02/10 05:08:49;;;;;;;25.60;13.27;;;2.20;99.90;;;;;;4994606;28;20198;-71
2023/02/10 05:11:15;;;;;;;27.73;13.40;;;2.10;99.90;;;;;;4994451;28;20240;-71
2023/02/10 05:13:42;;;;;;;28.20;15.10;;;2.10;99.90;;;;;;4994505;28;20419;-71
2023/02/10 05:16:09;;;;;;;22.13;12.83;;;2.00;99.90;;;;;;5003112;28;20422;-71
2023/02/10 05:18:35;;;;;;;31.33;14.93;;;2.00;99.90;;;;;;5020620;28;20444;-71
2023/02/10 05:21:02;;;;;;;39.00;20.07;;;2.00;99.90;;;;;;5013602;28;20530;-72
2023/02/10 05:23:28;;;;;;;36.17;16.83;;;2.00;99.90;;;;;;5014164;28;20405;-71
2023/02/10 05:25:54;;;;;;;28.47;14.10;;;2.00;99.90;;;;;;5013686;28;20418;-71
2023/02/10 05:28:19;;;;;;;21.97;13.67;;;2.00;99.90;;;;;;5012716;28;20439;-71
2023/02/10 05:30:46;;;;;;;28.73;14.70;;;2.00;99.90;;;;;;5013789;28;20273;-71
2023/02/10 05:33:11;;;;;;;26.33;13.83;;;2.00;99.90;;;;;;5013803;28;20532;-72
2023/02/10 05:35:37;;;;;;;34.90;16.30;;;2.00;99.90;;;;;;5013558;28;20405;-71
2023/02/10 05:38:02;;;;;;;31.47;16.10;;;2.10;99.90;;;;;;5013720;28;20171;-72
2023/02/10 05:40:29;;;;;;;30.10;16.10;;;2.00;99.90;;;;;;5013786;28;20198;-71
2023/02/10 05:42:54;;;;;;;28.27;15.97;;;2.00;99.90;;;;;;5013572;28;20259;-71
2023/02/10 05:45:20;;;;;;;36.50;16.23;;;2.00;99.90;;;;;;5006234;28;20502;-72
2023/02/10 05:47:47;;;;;;;25.40;14.37;;;2.00;99.90;;;;;;4993976;28;20179;-71
2023/02/10 05:50:13;;;;;;;38.23;16.10;;;2.00;99.90;;;;;;4993806;28;20516;-72
2023/02/10 05:52:39;;;;;;;25.47;13.87;;;2.00;99.90;;;;;;4993942;28;20407;-71
2023/02/10 05:55:05;;;;;;;33.50;14.87;;;2.00;99.90;;;;;;4993611;28;20199;-72
2023/02/10 05:57:31;;;;;;;37.50;15.53;;;1.90;99.90;;;;;;4993881;28;20910;-72
2023/02/10 05:59:56;;;;;;;30.80;15.63;;;1.90;99.90;;;;;;4993579;28;20489;-71
2023/02/10 06:02:22;;;;;;;42.37;21.50;;;1.90;99.90;;;;;;5004388;28;20178;-71
2023/02/10 06:04:48;;;;;;;44.93;19.47;;;1.90;99.90;;;;;;5012877;28;20175;-71
2023/02/10 06:07:13;;;;;;;30.33;16.80;;;1.90;99.90;;;;;;5013314;28;20471;-71
2023/02/10 06:09:39;;;;;;;23.97;13.27;;;1.90;99.90;;;;;;5011675;28;20194;-72
2023/02/10 06:12:05;;;;;;;27.07;14.63;;;1.90;99.90;;;;;;5013091;28;20293;-71
2023/02/10 06:14:31;;;;;;;38.93;15.27;;;1.90;99.90;;;;;;5010608;28;20562;-73
2023/02/10 06:16:57;;;;;;;34.30;17.37;;;1.80;99.90;;;;;;5011881;28;20429;-71
2023/02/10 06:19:22;;;;;;;32.33;16.33;;;1.80;99.90;;;;;;5011115;28;20183;-71
2023/02/10 06:21:48;;;;;;;41.93;15.80;;;1.80;99.90;;;;;;5012898;28;20214;-72
2023/02/10 06:24:14;;;;;;;32.97;16.07;;;1.90;99.90;;;;;;5012751;28;20183;-70
2023/02/10 06:26:40;;;;;;;40.70;16.13;;;1.90;99.90;;;;;;5012783;28;20471;-72
2023/02/10 06:29:05;;;;;;;28.60;15.57;;;1.80;99.90;;;;;;5014499;28;20183;-71
2023/02/10 06:31:31;;;;;;;34.70;16.17;;;1.80;99.90;;;;;;5021800;28;20196;-72
2023/02/10 06:33:56;;;;;;;36.37;15.70;;;1.90;99.90;;;;;;5012789;28;20224;-72
2023/02/10 06:36:22;;;;;;;26.60;15.97;;;1.90;99.90;;;;;;5012502;28;20224;-72
2023/02/10 06:38:47;;;;;;;34.50;15.77;;;1.90;99.90;;;;;;5012857;28;20245;-72
2023/02/10 06:41:13;;;;;;;37.50;16.97;;;1.90;99.90;;;;;;5012643;28;20191;-71
2023/02/10 06:43:39;;;;;;;26.63;15.30;;;2.00;99.90;;;;;;5012585;28;20168;-72
2023/02/10 06:46:05;;;;;;;41.03;16.10;;;1.90;99.90;;;;;;4999471;28;20250;-72
2023/02/10 06:48:30;;;;;;;49.60;17.60;;;1.90;99.90;;;;;;4992848;28;20188;-72
2023/02/10 06:50:56;;;;;;;38.73;17.60;;;1.90;99.90;;;;;;4992742;28;20204;-72
2023/02/10 06:53:22;;;;;;;47.07;20.40;;;1.90;99.90;;;;;;4992870;28;20257;-72
2023/02/10 06:55:47;;;;;;;36.23;20.03;;;1.90;99.90;;;;;;4992525;28;20490;-72
2023/02/10 06:58:13;;;;;;;35.47;18.20;;;1.90;99.90;;;;;;4992682;28;20276;-72
2023/02/10 07:00:39;;;;;;;32.37;16.10;;;2.00;99.90;;;;;;4991416;28;20196;-71
2023/02/10 07:03:05;;;;;;;31.30;15.77;;;1.90;99.90;;;;;;5010282;28;20424;-71
2023/02/10 07:05:31;;;;;;;40.73;17.23;;;2.00;99.90;;;;;;5011963;28;20497;-71
2023/02/10 07:07:59;;;;;;;38.50;17.00;;;2.10;99.90;;;;;;5012255;28;20607;-72
2023/02/10 07:10:25;;;;;;;33.60;16.33;;;2.10;99.90;;;;;;5011881;28;20871;-71
2023/02/10 07:12:51;;;;;;;29.90;16.97;;;2.10;99.90;;;;;;5012212;28;20401;-71
2023/02/10 07:15:18;;;;;;;37.13;17.83;;;2.20;99.90;;;;;;5011864;28;20410;-70
2023/02/10 07:17:44;;;;;;;33.07;15.90;;;2.30;99.90;;;;;;5012305;28;20937;-71
2023/02/10 07:20:11;;;;;;;46.20;19.80;;;2.40;99.90;;;;;;5011885;28;20812;-70
2023/02/10 07:22:37;;;;;;;33.37;15.23;;;2.50;99.90;;;;;;5010869;28;20445;-71
2023/02/10 07:25:03;;;;;;;44.60;17.30;;;2.50;99.90;;;;;;5014932;28;20942;-71
2023/02/10 07:27:28;;;;;;;43.47;18.57;;;2.50;99.90;;;;;;5018592;28;20191;-71
2023/02/10 07:29:54;;;;;;;33.73;18.17;;;2.50;99.90;;;;;;5018724;28;20910;-72
2023/02/10 07:32:19;;;;;;;34.97;17.13;;;2.50;99.90;;;;;;5017201;28;20180;-71
2023/02/10 07:34:46;;;;;;;29.77;15.30;;;2.50;99.90;;;;;;5018263;28;20224;-70
2023/02/10 07:37:11;;;;;;;32.20;17.10;;;2.50;99.90;;;;;;5018372;28;20178;-71
2023/02/10 07:39:37;;;;;;;35.13;16.07;;;2.50;99.90;;;;;;5016611;28;20401;-71
2023/02/10 07:42:02;;;;;;;23.60;15.90;;;2.50;99.90;;;;;;5027388;28;20183;-71
2023/02/10 07:44:28;;;;;;;27.13;12.53;;;2.50;99.90;;;;;;5016530;28;20270;-71
2023/02/10 07:46:53;;;;;;;30.80;15.43;;;2.50;99.90;;;;;;4998490;28;20194;-71
2023/02/10 07:49:19;;;;;;;36.70;15.47;;;2.50;99.90;;;;;;4998766;28;20180;-70
2023/02/10 07:51:45;;;;;;;35.50;16.93;;;2.60;99.90;;;;;;4998555;28;20670;-71
2023/02/10 07:54:11;;;;;;;22.60;13.60;;;2.70;99.90;;;;;;4998495;28;20438;-70
2023/02/10 07:56:36;;;;;;;29.90;15.87;;;2.80;99.90;;;;;;4998467;28;20168;-70
2023/02/10 07:59:02;;;;;;;20.53;13.73;;;2.90;99.90;;;;;;4998535;28;20251;-70
2023/02/10 08:01:27;;;;;;;29.37;15.90;;;3.00;99.90;;;;;;4998501;28;20275;-70
2023/02/10 08:03:53;;;;;;;39.40;15.67;;;3.20;99.90;;;;;;5008329;28;20183;-70
2023/02/10 08:06:23;;;;;;;36.53;16.77;;;3.30;99.90;;;;;;4998544;28;20180;-71
2023/02/10 08:08:49;;;;;;;32.20;16.47;;;3.60;99.90;;;;;;4998544;28;20188;-70
2023/02/10 08:11:16;;;;;;;34.47;17.50;;;3.80;99.90;;;;;;4998313;28;20510;-71
2023/02/10 08:13:41;;;;;;;38.37;18.43;;;4.20;99.90;;;;;;4998833;28;20172;-71
2023/02/10 08:16:07;;;;;;;40.47;19.93;;;4.60;99.90;;;;;;4997057;28;20923;-71
2023/02/10 08:18:40;;;;;;;37.30;18.63;;;5.00;99.90;;;;;;4997543;28;20168;-71
2023/02/10 08:21:07;;;;;;;37.57;19.03;;;5.60;99.90;;;;;;4997278;28;21003;-71
2023/02/10 08:23:33;;;;;;;41.50;20.13;;;6.60;99.90;;;;;;4998556;28;20404;-70
2023/02/10 08:26:03;;;;;;;40.10;20.30;;;7.60;99.90;;;;;;4998111;28;20938;-70
2023/02/10 08:28:28;;;;;;;37.80;20.20;;;8.60;99.90;;;;;;4997154;28;20443;-70
2023/02/10 08:30:54;;;;;;;33.43;17.97;;;9.60;99.90;;;;;;4998104;28;20589;-70
2023/02/10 08:33:19;;;;;;;40.40;20.17;;;10.50;99.90;;;;;;4998500;28;20768;-71
2023/02/10 08:35:45;;;;;;;27.40;15.73;;;11.00;99.90;;;;;;4997002;28;20172;-71
2023/02/10 08:38:10;;;;;;;25.70;16.63;;;11.60;99.90;;;;;;4995042;28;20175;-71
2023/02/10 08:40:36;;;;;;;31.57;17.90;;;12.20;99.90;;;;;;4995331;28;20240;-71
2023/02/10 08:43:02;;;;;;;23.33;14.90;;;12.90;99.90;;;;;;4995258;28;20248;-70
2023/02/10 08:45:28;;;;;;;33.07;18.00;;;13.50;99.90;;;;;;4994879;28;20693;-71
2023/02/10 08:47:53;;;;;;;27.97;16.93;;;14.00;99.90;;;;;;4995194;28;20207;-70
2023/02/10 08:50:19;;;;;;;30.20;16.97;;;14.30;99.90;;;;;;5024344;28;20201;-71
2023/02/10 08:52:44;;;;;;;32.17;16.10;;;14.70;99.90;;;;;;5008241;28;20216;-71
2023/02/10 08:55:11;;;;;;;25.27;16.23;;;15.20;99.90;;;;;;5029709;28;20191;-71
2023/02/10 08:57:37;;;;;;;22.10;14.40;;;16.00;99.90;;;;;;5013370;28;20175;-71
2023/02/10 09:00:04;;;;;;;23.00;13.40;;;17.10;97.10;;;;;;5014492;28;20474;-71
2023/02/10 09:02:30;;;;;;;28.87;15.17;;;18.50;91.90;;;;;;5014514;28;20853;-71
2023/02/10 09:04:56;;;;;;;29.03;15.70;;;19.40;69.40;;;;;;5014233;28;20443;-72
2023/02/10 09:07:21;;;;;;;22.53;16.13;;;20.30;59.80;;;;;;5014507;28;20181;-71
2023/02/10 09:09:47;;;;;;;22.67;15.77;;;21.10;56.90;;;;;;5014313;28;20192;-72
2023/02/10 09:12:12;;;;;;;23.73;15.30;;;21.80;54.20;;;;;;5014094;28;20204;-72
2023/02/10 09:14:38;;;;;;;26.23;16.10;;;22.60;52.30;;;;;;5014073;28;20203;-72
2023/02/10 09:17:04;;;;;;;25.27;15.27;;;23.00;48.20;;;;;;5014378;28;20248;-72
2023/02/10 09:19:30;;;;;;;23.83;15.80;;;23.40;45.30;;;;;;5014177;28;20410;-72
2023/02/10 09:21:56;;;;;;;23.97;16.17;;;22.10;44.30;;;;;;5012861;28;20419;-71
2023/02/10 09:24:22;;;;;;;30.70;15.17;;;22.20;44.50;;;;;;5013907;28;20172;-71
2023/02/10 09:26:47;;;;;;;23.97;14.33;;;21.80;44.60;;;;;;5013976;28;20168;-72
2023/02/10 09:29:13;;;;;;;20.80;13.40;;;22.30;46.00;;;;;;5013486;28;20403;-71
2023/02/10 09:31:39;;;;;;;20.10;13.10;;;23.20;46.20;;;;;;5013552;28;20594;-71
2023/02/10 09:34:04;;;;;;;24.53;14.80;;;24.00;44.50;;;;;;5013853;28;20160;-72
2023/02/10 09:36:31;;;;;;;18.00;12.27;;;24.80;44.10;;;;;;5013468;28;20598;-72
2023/02/10 09:38:56;;;;;;;28.47;15.40;;;25.70;44.00;;;;;;5013910;28;20219;-73
2023/02/10 09:41:34;;;;;;;18.90;13.50;;;25.50;40.20;;;;;;5013535;28;20427;-72
2023/02/10 09:44:15;;;;;;;19.00;13.27;;;26.20;41.50;;;;;;5013757;28;20203;-73
2023/02/10 09:46:49;;;;;;;19.00;14.77;;;26.00;38.90;;;;;;4995861;28;20495;-72
2023/02/10 09:49:34;;;;;;;18.40;14.27;;;25.70;38.10;;;;;;4993909;28;20963;-72
2023/02/10 09:52:17;;;;;;;21.17;13.77;;;25.50;38.80;;;;;;4997944;28;20512;-72
2023/02/10 09:54:44;;;;;;;22.30;16.17;;;25.80;39.40;;;;;;5001233;28;20417;-72
2023/02/10 09:57:19;;;;;;;19.93;12.83;;;25.50;38.50;;;;;;5023118;28;20787;-72
2023/02/10 09:59:48;;;;;;;22.30;14.70;;;25.40;39.60;;;;;;5013332;28;20402;-72
2023/02/10 10:02:24;;;;;;;18.50;13.10;;;25.20;38.90;;;;;;5013101;28;20907;-72
2023/02/10 10:04:50;;;;;;;27.20;14.73;;;25.70;39.50;;;;;;5012916;28;20902;-70
2023/02/10 10:07:25;;;;;;;25.50;17.00;;;26.90;39.10;;;;;;5011993;28;20411;-70
2023/02/10 10:10:14;;;;;;;15.73;12.80;;;28.20;37.70;;;;;;5013067;28;20789;-70
2023/02/10 10:12:39;;;;;;;21.10;12.93;;;29.60;37.40;;;;;;5013038;28;20411;-70
2023/02/10 10:15:14;;;;;;;17.50;15.20;;;30.60;36.50;;;;;;5012825;28;20428;-71
2023/02/10 10:17:39;;;;;;;17.63;13.80;;;31.40;35.30;;;;;;5013210;28;20199;-71
2023/02/10 10:20:08;;;;;;;18.53;15.10;;;32.10;34.30;;;;;;5012866;28;20419;-70
2023/02/10 10:22:57;;;;;;;18.80;14.03;;;32.60;33.10;;;;;;5003188;28;20173;-73
2023/02/10 10:25:40;;;;;;;16.93;11.20;;;32.90;31.70;;;;;;4993091;28;20901;-71
2023/02/10 10:28:43;;;;;;;18.80;13.20;;;33.40;31.40;;;;;;4993424;28;20483;-71
2023/02/10 10:31:40;;;;;;;15.10;12.33;;;33.70;30.40;;;;;;4991637;28;20501;-71
2023/02/10 10:34:12;;;;;;;19.10;12.60;;;34.10;30.70;;;;;;4992811;28;20428;-72
2023/02/10 10:36:49;;;;;;;16.50;13.77;;;34.60;29.80;;;;;;4992946;28;20912;-72
2023/02/10 10:39:38;;;;;;;19.57;12.90;;;35.30;29.80;;;;;;4993183;28;20773;-72
2023/02/10 10:42:17;;;;;;;13.87;12.33;;;36.10;29.50;;;;;;4993011;28;20485;-72
2023/02/10 10:44:45;;;;;;;18.80;13.63;;;36.70;28.80;;;;;;4992756;28;20427;-72
2023/02/10 10:47:52;;;;;;;14.93;12.67;;;36.70;28.10;;;;;;4992955;28;20408;-72
2023/02/10 10:50:20;;;;;;;19.10;13.80;;;36.90;27.80;;;;;;4970952;28;20898;-71
2023/02/10 10:52:51;;;;;;;16.23;13.00;;;37.30;27.60;;;;;;4996431;28;20427;-72
2023/02/10 10:55:26;;;;;;;15.47;12.20;;;37.80;27.70;;;;;;5012275;28;20404;-72
2023/02/10 10:57:54;;;;;;;16.40;12.40;;;38.40;27.50;;;;;;5012456;28;20435;-72
2023/02/10 11:00:28;;;;;;;16.23;13.50;;;38.40;26.40;;;;;;5011621;28;20423;-73
2023/02/10 11:03:04;;;;;;;17.23;13.90;;;38.60;26.60;;;;;;5012309;28;20904;-72
2023/02/10 11:05:33;;;;;;;14.00;11.27;;;38.60;26.00;;;;;;5012053;28;20373;-72
2023/02/10 11:07:59;;;;;;;21.40;14.63;;;38.60;25.90;;;;;;5024405;28;20493;-72
2023/02/10 11:10:38;;;;;;;17.37;12.53;;;38.50;25.50;;;;;;5012035;28;20455;-72
2023/02/10 11:13:05;;;;;;;16.23;12.63;;;38.50;25.90;;;;;;5012374;28;20391;-72
2023/02/10 11:15:40;;;;;;;21.07;13.00;;;38.90;26.20;;;;;;5011905;28;20407;-71
2023/02/10 11:18:18;;;;;;;15.90;14.23;;;38.80;25.70;;;;;;5012216;28;20763;-73
2023/02/10 11:20:53;;;;;;;19.60;16.27;;;38.50;25.70;;;;;;5012039;28;20434;-72
2023/02/10 11:23:18;;;;;;;21.53;15.07;;;38.40;26.00;;;;;;5011280;28;20463;-72
2023/02/10 11:25:59;;;;;;;19.90;14.53;;;38.30;25.90;;;;;;5011734;28;20489;-72
2023/02/10 11:28:27;;;;;;;25.13;16.43;;;38.10;25.80;;;;;;5012218;28;20178;-71
2023/02/10 11:31:00;;;;;;;22.70;18.67;;;37.40;25.30;;;;;;4997711;28;20452;-72
2023/02/10 11:33:30;;;;;;;22.70;17.60;;;36.80;25.20;;;;;;4992460;28;20415;-72
2023/02/10 11:36:08;;;;;;;25.17;18.87;;;36.00;24.90;;;;;;4991822;28;20396;-71
2023/02/10 11:38:34;;;;;;;22.50;18.47;;;33.40;25.00;;;;;;4992357;28;20434;-71
2023/02/10 11:41:04;;;;;;;23.57;16.63;;;30.40;26.50;;;;;;4992198;28;20481;-71
2023/02/10 11:43:36;;;;;;;28.87;18.10;;;28.00;28.50;;;;;;4992371;28;20408;-72
2023/02/10 11:46:08;;;;;;;25.97;18.00;;;26.90;30.10;;;;;;4991648;28;20424;-71
2023/02/10 11:48:33;;;;;;;23.57;16.10;;;26.60;31.20;;;;;;4992172;28;20418;-71
2023/02/10 11:51:15;;;;;;;27.57;17.90;;;25.90;31.40;;;;;;4996510;28;20459;-71
2023/02/10 11:53:42;;;;;;;19.07;15.10;;;26.00;31.70;;;;;;4994538;28;20638;-71
2023/02/10 11:59:48;;;;;;;23.80;15.40;;;27.00;32.00;;;;;;4992595;28;20379;-71
2023/02/10 12:02:42;;;;;;;20.63;14.47;;;28.60;31.20;;;;;;4992315;28;20405;-71
2023/02/10 12:05:10;;;;;;;19.47;16.10;;;29.10;30.30;;;;;;4991912;28;20762;-70
2023/02/10 12:07:51;;;;;;;19.20;13.47;;;28.90;29.00;;;;;;4992214;28;20435;-74
2023/02/10 12:10:26;;;;;;;20.50;14.80;;;29.80;30.30;;;;;;4992058;28;20482;-71
2023/02/10 12:12:54;;;;;;;14.87;11.77;;;30.70;29.20;;;;;;5017928;28;20754;-72
2023/02/10 12:15:46;;;;;;;14.70;12.20;;;31.50;29.40;;;;;;5017562;28;20403;-71
2023/02/10 12:18:41;;;;;;;24.53;17.60;;;32.80;29.50;;;;;;5003708;28;20410;-71
2023/02/10 12:21:46;;;;;;;17.47;13.47;;;33.70;27.60;;;;;;4995786;28;20428;-71
2023/02/10 12:24:41;;;;;;;14.93;11.40;;;34.00;27.70;;;;;;4995367;28;20407;-73
2023/02/10 12:27:21;;;;;;;20.93;11.60;;;34.40;27.70;;;;;;4995335;28;20787;-71
2023/02/10 12:30:17;;;;;;;19.50;14.90;;;35.10;26.80;;;;;;4995492;28;20395;-71
2023/02/10 12:33:20;;;;;;;16.47;12.97;;;34.90;25.30;;;;;;4995555;28;20423;-71
2023/02/10 12:36:07;;;;;;;16.63;11.80;;;34.10;25.90;;;;;;4993781;28;20917;-71
2023/02/10 12:39:03;;;;;;;19.87;13.87;;;34.30;26.10;;;;;;4995379;28;20801;-71
2023/02/10 12:41:53;;;;;;;18.00;13.50;;;34.50;25.30;;;;;;4995251;28;20424;-71
2023/02/10 12:44:41;;;;;;;16.03;11.83;;;32.90;24.30;;;;;;4995038;28;20748;-71
2023/02/10 12:47:22;;;;;;;13.93;11.17;;;31.40;25.00;;;;;;4996986;28;20429;-71
2023/02/10 12:50:26;;;;;;;14.57;11.77;;;31.40;26.50;;;;;;4995214;28;20407;-70